Time;durP1;ratioP1;P1;durP2;ratioP2;P2;SDS_P1;SDS_P2;PMS_P1;PMS_P2;Temp;Humidity;BMP_temperature;BMP_pressure;BME280_temperature;BME280_humidity;BME280_pressure;Samples;Min_cycle;Max_cycle;Signal;HPM_P1;HPM_P2
2023/04/11 00:02:21;;;;;;;10.82;7.40;;;;;;;;;;4965690;28;20042;-40
2023/04/11 00:04:47;;;;;;;13.63;7.70;;;;;;;;;;4968614;28;20031;-40
2023/04/11 00:07:13;;;;;;;12.00;7.35;;;;;;;;;;4965019;28;20451;-40
2023/04/11 00:09:38;;;;;;;10.93;7.28;;;;;;;;;;4970720;28;20054;-40
2023/04/11 00:12:04;;;;;;;12.70;8.05;;;;;;;;;;4965918;28;20411;-39
2023/04/11 00:14:33;;;;;;;9.45;7.18;;;;;;;;;;4965033;28;20026;-40
2023/04/11 00:16:59;;;;;;;11.75;7.38;;;;;;;;;;4968110;28;20077;-40
2023/04/11 00:19:27;;;;;;;9.38;7.03;;;;;;;;;;4968161;28;20058;-40
2023/04/11 00:21:56;;;;;;;11.98;8.10;;;;;;;;;;4966667;28;20054;-40
2023/04/11 00:24:22;;;;;;;10.63;6.95;;;;;;;;;;4963702;28;20090;-40
2023/04/11 00:26:47;;;;;;;22.23;9.57;;;;;;;;;;4967378;28;20039;-39
2023/04/11 00:29:12;;;;;;;15.82;8.02;;;;;;;;;;4966643;28;20379;-40
2023/04/11 00:31:38;;;;;;;8.57;7.75;;;;;;;;;;4962723;28;20117;-40
2023/04/11 00:34:03;;;;;;;9.93;7.93;;;;;;;;;;4966826;28;20035;-40
2023/04/11 00:36:30;;;;;;;13.27;8.60;;;;;;;;;;4966495;28;20035;-40
2023/04/11 00:38:57;;;;;;;11.13;9.40;;;;;;;;;;4966327;28;20031;-40
2023/04/11 00:41:23;;;;;;;9.40;8.35;;;;;;;;;;4968806;28;20042;-40
2023/04/11 00:43:49;;;;;;;11.32;9.35;;;;;;;;;;4968205;28;20027;-40
2023/04/11 00:46:15;;;;;;;12.02;9.18;;;;;;;;;;4965074;28;20039;-39
2023/04/11 00:48:42;;;;;;;13.68;10.30;;;;;;;;;;4965148;28;20408;-40
2023/04/11 00:51:07;;;;;;;11.00;8.98;;;;;;;;;;4968757;28;20129;-40
2023/04/11 00:53:36;;;;;;;14.60;9.32;;;;;;;;;;4961681;28;20476;-40
2023/04/11 00:56:01;;;;;;;13.00;8.95;;;;;;;;;;4964042;28;20155;-40
2023/04/11 00:58:27;;;;;;;11.80;10.00;;;;;;;;;;4967397;28;20416;-40
2023/04/11 01:00:53;;;;;;;13.13;8.90;;;;;;;;;;4967073;28;20050;-39
2023/04/11 01:03:19;;;;;;;14.05;9.63;;;;;;;;;;4965509;28;20027;-40
2023/04/11 01:05:46;;;;;;;14.02;9.75;;;;;;;;;;4966344;28;20138;-40
2023/04/11 01:08:13;;;;;;;10.65;9.55;;;;;;;;;;4966189;28;20027;-40
2023/04/11 01:10:40;;;;;;;14.95;9.75;;;;;;;;;;4966875;28;20093;-40
2023/04/11 01:13:06;;;;;;;18.73;10.02;;;;;;;;;;4967139;28;20035;-39
2023/04/11 01:15:31;;;;;;;13.10;9.52;;;;;;;;;;4964625;28;20046;-40
2023/04/11 01:18:00;;;;;;;13.80;9.30;;;;;;;;;;4962488;28;20109;-40
2023/04/11 01:20:26;;;;;;;10.60;8.63;;;;;;;;;;4957562;28;20039;-40
2023/04/11 01:22:55;;;;;;;15.45;9.90;;;;;;;;;;4948732;28;20424;-40
2023/04/11 01:25:22;;;;;;;9.65;8.63;;;;;;;;;;4950681;28;20531;-41
2023/04/11 01:27:47;;;;;;;13.50;9.35;;;;;;;;;;4965616;28;20080;-40
2023/04/11 01:30:13;;;;;;;12.10;9.32;;;;;;;;;;4958773;28;20114;-43
2023/04/11 01:32:39;;;;;;;15.32;9.85;;;;;;;;;;4967760;28;20039;-40
2023/04/11 01:35:06;;;;;;;14.68;10.00;;;;;;;;;;4965342;28;20027;-40
2023/04/11 01:37:31;;;;;;;15.90;10.07;;;;;;;;;;4967145;28;20023;-40
2023/04/11 01:39:57;;;;;;;15.02;10.48;;;;;;;;;;4965334;28;20043;-40
2023/04/11 01:42:23;;;;;;;14.85;10.27;;;;;;;;;;4961175;28;20047;-40
2023/04/11 01:44:50;;;;;;;16.63;10.45;;;;;;;;;;4965393;28;20559;-40
2023/04/11 01:47:16;;;;;;;18.42;9.82;;;;;;;;;;4966522;28;20157;-40
2023/04/11 01:49:42;;;;;;;12.80;9.90;;;;;;;;;;4966270;28;20193;-40
2023/04/11 01:52:07;;;;;;;11.82;9.63;;;;;;;;;;4964946;28;20057;-40
2023/04/11 01:54:32;;;;;;;15.07;10.43;;;;;;;;;;4961599;28;20025;-40
2023/04/11 01:56:58;;;;;;;14.18;10.30;;;;;;;;;;4965741;28;20419;-40
2023/04/11 01:59:23;;;;;;;15.90;9.75;;;;;;;;;;4959371;28;20027;-40
2023/04/11 02:01:48;;;;;;;17.30;9.93;;;;;;;;;;4961872;28;20114;-40
2023/04/11 02:04:14;;;;;;;11.80;9.07;;;;;;;;;;4961350;28;20085;-40
2023/04/11 02:06:39;;;;;;;9.48;8.45;;;;;;;;;;4966122;28;20395;-40
2023/04/11 02:09:05;;;;;;;11.27;8.50;;;;;;;;;;4962665;28;20027;-40
2023/04/11 02:11:30;;;;;;;14.82;7.97;;;;;;;;;;4963572;28;20050;-40
2023/04/11 02:13:55;;;;;;;12.75;8.10;;;;;;;;;;4965696;28;20449;-40
2023/04/11 02:16:24;;;;;;;11.35;9.10;;;;;;;;;;4966462;28;20041;-39
2023/04/11 02:18:50;;;;;;;14.27;8.95;;;;;;;;;;4962571;28;20597;-40
2023/04/11 02:21:16;;;;;;;12.45;8.93;;;;;;;;;;4965682;28;20039;-40
2023/04/11 02:23:41;;;;;;;15.68;9.63;;;;;;;;;;4964478;28;20027;-40
2023/04/11 02:26:08;;;;;;;10.00;8.95;;;;;;;;;;4963636;28;20049;-40
2023/04/11 02:28:35;;;;;;;13.15;8.35;;;;;;;;;;4966876;28;20400;-40
2023/04/11 02:31:01;;;;;;;15.48;8.88;;;;;;;;;;4961877;28;20066;-40
2023/04/11 02:33:26;;;;;;;15.05;8.23;;;;;;;;;;4962929;28;20093;-40
2023/04/11 02:35:52;;;;;;;15.93;9.13;;;;;;;;;;4960499;28;20047;-40
2023/04/11 02:38:17;;;;;;;16.55;9.57;;;;;;;;;;4966382;28;20023;-40
2023/04/11 02:40:42;;;;;;;10.63;8.93;;;;;;;;;;4967677;28;20127;-40
2023/04/11 02:43:08;;;;;;;12.82;8.48;;;;;;;;;;4965818;28;20353;-40
2023/04/11 02:45:33;;;;;;;13.27;9.80;;;;;;;;;;4964481;28;20038;-39
2023/04/11 02:47:59;;;;;;;13.52;9.50;;;;;;;;;;4964692;28;20059;-40
2023/04/11 02:50:27;;;;;;;13.20;8.30;;;;;;;;;;4964732;28;20562;-40
2023/04/11 02:52:53;;;;;;;11.98;8.90;;;;;;;;;;4967988;28;20102;-39
2023/04/11 02:55:21;;;;;;;17.25;9.38;;;;;;;;;;4963764;28;20030;-40
2023/04/11 02:57:47;;;;;;;13.98;8.25;;;;;;;;;;4965230;28;20490;-40
2023/04/11 03:00:13;;;;;;;10.90;8.70;;;;;;;;;;4962930;28;20061;-40
2023/04/11 03:02:38;;;;;;;12.52;9.00;;;;;;;;;;4968088;28;20601;-40
2023/04/11 03:05:05;;;;;;;14.32;8.60;;;;;;;;;;4965064;28;20407;-40
2023/04/11 03:07:31;;;;;;;11.75;8.75;;;;;;;;;;4970715;28;20037;-40
2023/04/11 03:09:56;;;;;;;9.43;8.40;;;;;;;;;;4969986;28;20059;-40
2023/04/11 03:12:22;;;;;;;15.82;8.32;;;;;;;;;;4969240;28;20074;-41
2023/04/11 03:14:47;;;;;;;12.35;8.80;;;;;;;;;;4965177;28;20037;-40
2023/04/11 03:17:12;;;;;;;13.73;8.05;;;;;;;;;;4967355;28;20436;-40
2023/04/11 03:19:38;;;;;;;13.38;8.70;;;;;;;;;;4968550;28;20027;-40
2023/04/11 03:22:04;;;;;;;14.82;8.93;;;;;;;;;;4964413;28;20364;-40
2023/04/11 03:24:29;;;;;;;12.40;8.55;;;;;;;;;;4968033;28;20035;-41
2023/04/11 03:26:55;;;;;;;17.27;8.73;;;;;;;;;;4966542;28;20047;-40
2023/04/11 03:29:20;;;;;;;12.52;9.18;;;;;;;;;;4966294;28;20043;-40
2023/04/11 03:31:45;;;;;;;14.13;9.45;;;;;;;;;;4963733;28;20043;-41
2023/04/11 03:34:11;;;;;;;19.33;10.70;;;;;;;;;;4967880;28;20059;-40
2023/04/11 03:36:36;;;;;;;12.77;9.85;;;;;;;;;;4966762;28;20039;-40
2023/04/11 03:39:02;;;;;;;13.32;10.68;;;;;;;;;;4969429;28;20050;-40
2023/04/11 03:41:28;;;;;;;17.25;10.73;;;;;;;;;;4968026;28;20043;-40
2023/04/11 03:43:53;;;;;;;16.05;11.35;;;;;;;;;;4967914;28;20034;-40
2023/04/11 03:46:19;;;;;;;16.77;12.02;;;;;;;;;;4958679;28;20607;-40
2023/04/11 03:48:45;;;;;;;20.00;12.07;;;;;;;;;;4950227;28;20058;-40
2023/04/11 03:51:11;;;;;;;17.38;13.40;;;;;;;;;;4957739;28;20067;-40
2023/04/11 03:53:36;;;;;;;20.73;12.30;;;;;;;;;;4968994;28;20065;-40
2023/04/11 03:56:03;;;;;;;15.55;11.50;;;;;;;;;;4959038;28;20050;-40
2023/04/11 03:58:28;;;;;;;17.92;12.25;;;;;;;;;;4945147;28;20030;-40
2023/04/11 04:00:54;;;;;;;21.25;12.82;;;;;;;;;;4954379;28;20133;-40
2023/04/11 04:03:19;;;;;;;13.95;11.63;;;;;;;;;;4964560;28;20031;-40
2023/04/11 04:05:45;;;;;;;15.77;12.02;;;;;;;;;;4965911;28;20209;-40
2023/04/11 04:08:10;;;;;;;16.35;11.70;;;;;;;;;;4966723;28;20031;-42
2023/04/11 04:10:35;;;;;;;19.38;12.15;;;;;;;;;;4967757;28;20554;-40
2023/04/11 04:13:01;;;;;;;21.98;13.45;;;;;;;;;;4965335;28;20030;-40
2023/04/11 04:15:26;;;;;;;16.63;12.20;;;;;;;;;;4962125;28;20909;-40
2023/04/11 04:17:51;;;;;;;22.05;12.77;;;;;;;;;;4964594;28;20241;-40
2023/04/11 04:20:17;;;;;;;19.63;12.55;;;;;;;;;;4965947;28;20057;-40
2023/04/11 04:22:46;;;;;;;19.65;12.98;;;;;;;;;;4967976;28;23192;-40
2023/04/11 04:25:15;;;;;;;18.08;13.10;;;;;;;;;;4962215;28;20472;-40
2023/04/11 04:27:43;;;;;;;16.85;13.00;;;;;;;;;;4964838;28;20035;-40
2023/04/11 04:30:14;;;;;;;17.38;12.88;;;;;;;;;;4965057;28;20431;-40
2023/04/11 04:32:46;;;;;;;17.90;13.10;;;;;;;;;;4961251;28;20090;-39
2023/04/11 04:35:12;;;;;;;18.27;14.07;;;;;;;;;;4966303;28;20452;-40
2023/04/11 04:37:44;;;;;;;19.95;13.52;;;;;;;;;;4963937;28;20038;-40
2023/04/11 04:40:12;;;;;;;20.58;13.82;;;;;;;;;;4957107;28;20500;-40
2023/04/11 04:42:40;;;;;;;18.45;14.45;;;;;;;;;;4954175;28;20449;-40
2023/04/11 04:45:06;;;;;;;25.15;14.20;;;;;;;;;;4955562;28;20039;-40
2023/04/11 04:47:34;;;;;;;23.27;13.73;;;;;;;;;;4957032;28;20085;-39
2023/04/11 04:50:00;;;;;;;20.10;13.68;;;;;;;;;;4958538;28;20030;-40
2023/04/11 04:52:27;;;;;;;23.25;13.75;;;;;;;;;;4956791;28;20043;-40
2023/04/11 04:54:56;;;;;;;25.38;13.82;;;;;;;;;;4957153;28;20034;-40
2023/04/11 04:57:22;;;;;;;23.08;14.30;;;;;;;;;;4955398;28;20046;-40
2023/04/11 04:59:48;;;;;;;26.05;15.20;;;;;;;;;;4955188;28;20096;-40
2023/04/11 05:02:13;;;;;;;22.23;14.10;;;;;;;;;;4954396;28;20042;-39
2023/04/11 05:04:39;;;;;;;23.42;15.60;;;;;;;;;;4950511;28;20191;-40
2023/04/11 05:07:05;;;;;;;15.45;12.02;;;;;;;;;;4940274;28;20058;-40
2023/04/11 05:09:30;;;;;;;20.55;14.13;;;;;;;;;;4938297;28;20780;-40
2023/04/11 05:11:56;;;;;;;24.88;13.38;;;;;;;;;;4946207;28;20051;-40
2023/04/11 05:14:21;;;;;;;21.38;13.98;;;;;;;;;;4948929;28;20038;-40
2023/04/11 05:16:47;;;;;;;20.63;15.25;;;;;;;;;;4952818;28;20043;-40
2023/04/11 05:19:12;;;;;;;23.42;15.30;;;;;;;;;;4964286;28;20050;-40
2023/04/11 05:21:38;;;;;;;28.88;16.20;;;;;;;;;;4962168;28;20051;-40
2023/04/11 05:24:04;;;;;;;21.67;15.90;;;;;;;;;;4959177;28;20044;-40
2023/04/11 05:26:30;;;;;;;31.77;16.73;;;;;;;;;;4952785;28;20055;-40
2023/04/11 05:28:56;;;;;;;22.75;16.00;;;;;;;;;;4959452;28;20035;-40
2023/04/11 05:31:21;;;;;;;30.35;15.88;;;;;;;;;;4963754;28;20519;-40
2023/04/11 05:33:47;;;;;;;23.80;16.02;;;;;;;;;;4956140;28;20126;-40
2023/04/11 05:36:13;;;;;;;23.52;16.40;;;;;;;;;;4943637;28;20047;-40
2023/04/11 05:38:42;;;;;;;30.48;17.08;;;;;;;;;;4948042;28;22254;-40
2023/04/11 05:41:08;;;;;;;23.70;15.77;;;;;;;;;;4947669;28;20126;-40
2023/04/11 05:43:33;;;;;;;26.00;16.33;;;;;;;;;;4941701;28;20027;-40
2023/04/11 05:45:59;;;;;;;22.42;15.35;;;;;;;;;;4940571;28;20128;-40
2023/04/11 05:48:24;;;;;;;24.55;15.68;;;;;;;;;;4947931;28;20408;-40
2023/04/11 05:50:50;;;;;;;23.05;16.17;;;;;;;;;;4953855;28;20133;-40
2023/04/11 05:53:16;;;;;;;23.60;15.30;;;;;;;;;;4959401;28;20030;-39
2023/04/11 05:55:41;;;;;;;23.70;15.40;;;;;;;;;;4959727;28;20046;-39
2023/04/11 05:58:08;;;;;;;25.88;15.32;;;;;;;;;;4960817;28;20154;-40
2023/04/11 06:00:34;;;;;;;26.67;15.75;;;;;;;;;;4964441;28;20050;-39
2023/04/11 06:03:00;;;;;;;21.52;15.80;;;;;;;;;;4964904;28;20023;-40
2023/04/11 06:05:30;;;;;;;25.55;15.43;;;;;;;;;;4964140;28;20384;-40
2023/04/11 06:07:56;;;;;;;27.65;16.02;;;;;;;;;;4956861;28;20114;-40
2023/04/11 06:10:22;;;;;;;23.92;16.58;;;;;;;;;;4954999;28;20045;-39
2023/04/11 06:12:47;;;;;;;24.45;16.38;;;;;;;;;;4963244;28;20543;-39
2023/04/11 06:15:13;;;;;;;24.38;15.23;;;;;;;;;;4959781;28;20039;-40
2023/04/11 06:17:38;;;;;;;21.83;15.43;;;;;;;;;;4939123;28;20574;-40
2023/04/11 06:20:05;;;;;;;27.08;14.93;;;;;;;;;;4940516;28;20035;-40
2023/04/11 06:22:30;;;;;;;21.98;14.20;;;;;;;;;;4951240;28;20043;-40
2023/04/11 06:24:56;;;;;;;23.13;14.05;;;;;;;;;;4948096;28;20771;-39
2023/04/11 06:27:21;;;;;;;20.75;12.85;;;;;;;;;;4962532;28;20500;-40
2023/04/11 06:29:47;;;;;;;18.73;12.70;;;;;;;;;;4954809;28;20403;-40
2023/04/11 06:32:12;;;;;;;23.95;11.73;;;;;;;;;;4962813;28;20047;-40
2023/04/11 06:34:38;;;;;;;24.23;14.90;;;;;;;;;;4961378;28;20051;-39
2023/04/11 06:37:05;;;;;;;24.88;15.48;;;;;;;;;;4963364;28;20063;-43
2023/04/11 06:39:31;;;;;;;21.77;14.55;;;;;;;;;;4962909;28;20033;-39
2023/04/11 06:41:56;;;;;;;25.25;15.73;;;;;;;;;;4968197;28;20398;-39
2023/04/11 06:44:22;;;;;;;21.58;13.75;;;;;;;;;;4973193;28;20382;-40
2023/04/11 06:46:47;;;;;;;25.40;15.18;;;;;;;;;;4966161;28;20137;-39
2023/04/11 06:49:12;;;;;;;28.80;14.73;;;;;;;;;;4959911;28;20034;-40
2023/04/11 06:51:38;;;;;;;33.30;15.82;;;;;;;;;;4966474;28;20097;-39
2023/04/11 06:54:05;;;;;;;24.30;14.27;;;;;;;;;;4968486;28;20038;-39
2023/04/11 06:56:31;;;;;;;10.05;8.90;;;;;;;;;;4968206;28;20031;-39
2023/04/11 06:58:56;;;;;;;16.42;9.52;;;;;;;;;;4963153;28;20032;-40
2023/04/11 07:01:24;;;;;;;12.95;8.77;;;;;;;;;;4969774;28;20039;-39
2023/04/11 07:03:51;;;;;;;9.95;8.70;;;;;;;;;;4966073;28;20031;-39
2023/04/11 07:06:18;;;;;;;13.43;9.05;;;;;;;;;;4968479;28;20047;-40
2023/04/11 07:08:44;;;;;;;10.10;6.47;;;;;;;;;;4963109;28;20053;-40
2023/04/11 07:11:10;;;;;;;8.50;6.65;;;;;;;;;;4964361;28;20027;-40
2023/04/11 07:13:35;;;;;;;14.65;7.68;;;;;;;;;;4966251;28;20383;-39
2023/04/11 07:16:01;;;;;;;6.57;5.82;;;;;;;;;;4965185;28;20039;-40
2023/04/11 07:18:26;;;;;;;7.15;5.30;;;;;;;;;;4965283;28;20066;-40
2023/04/11 07:20:51;;;;;;;8.65;5.57;;;;;;;;;;4965725;28;20046;-39
2023/04/11 07:23:17;;;;;;;9.93;5.50;;;;;;;;;;4971723;28;20636;-40
2023/04/11 07:25:44;;;;;;;8.65;6.22;;;;;;;;;;4969747;28;20047;-39
2023/04/11 07:28:10;;;;;;;10.10;6.13;;;;;;;;;;4966403;28;20533;-40
2023/04/11 07:30:36;;;;;;;7.78;5.95;;;;;;;;;;4966459;28;20526;-39
2023/04/11 07:33:02;;;;;;;11.98;7.43;;;;;;;;;;4972418;28;20043;-40
2023/04/11 07:35:27;;;;;;;7.55;6.68;;;;;;;;;;4969260;28;20061;-40
2023/04/11 07:37:53;;;;;;;13.93;7.35;;;;;;;;;;4963852;28;20035;-40
2023/04/11 07:40:19;;;;;;;13.05;5.80;;;;;;;;;;4962879;28;20407;-40
2023/04/11 07:42:47;;;;;;;7.50;6.20;;;;;;;;;;4971226;28;20112;-40
2023/04/11 07:45:13;;;;;;;9.50;7.35;;;;;;;;;;4966780;28;20110;-40
2023/04/11 07:47:38;;;;;;;9.45;7.00;;;;;;;;;;4958568;28;20114;-42
2023/04/11 07:50:04;;;;;;;12.27;7.68;;;;;;;;;;4960765;28;20163;-40
2023/04/11 07:52:30;;;;;;;9.98;6.90;;;;;;;;;;4968937;28;20919;-40
2023/04/11 07:54:55;;;;;;;10.27;7.18;;;;;;;;;;4967816;28;20035;-40
2023/04/11 07:57:21;;;;;;;14.75;7.93;;;;;;;;;;4957180;28;20039;-40
2023/04/11 07:59:46;;;;;;;11.40;7.22;;;;;;;;;;4960778;28;20054;-40
2023/04/11 08:02:11;;;;;;;14.43;7.10;;;;;;;;;;4968332;28;20046;-40
2023/04/11 08:04:37;;;;;;;15.50;8.27;;;;;;;;;;4969446;28;20037;-40
2023/04/11 08:07:02;;;;;;;9.98;7.88;;;;;;;;;;4958667;28;20042;-39
2023/04/11 08:09:28;;;;;;;12.68;7.60;;;;;;;;;;4958142;28;20589;-40
2023/04/11 08:11:55;;;;;;;10.23;7.15;;;;;;;;;;4958466;28;20079;-40
2023/04/11 08:14:21;;;;;;;16.80;7.10;;;;;;;;;;4969003;28;20038;-40
2023/04/11 08:16:47;;;;;;;11.82;6.45;;;;;;;;;;4960726;28;20552;-43
2023/04/11 08:19:12;;;;;;;10.90;6.50;;;;;;;;;;4962801;28;20034;-39
2023/04/11 08:21:38;;;;;;;8.10;5.90;;;;;;;;;;4959374;28;20484;-40
2023/04/11 08:24:03;;;;;;;9.50;5.20;;;;;;;;;;4965052;28;20106;-40
2023/04/11 08:26:29;;;;;;;7.80;5.18;;;;;;;;;;4964124;28;21504;-40
2023/04/11 08:28:55;;;;;;;10.82;5.15;;;;;;;;;;4964544;28;20085;-40
2023/04/11 08:31:20;;;;;;;9.77;4.88;;;;;;;;;;4964013;28;20046;-41
2023/04/11 08:33:46;;;;;;;9.60;5.07;;;;;;;;;;4966671;28;20038;-40
2023/04/11 08:36:11;;;;;;;7.60;4.72;;;;;;;;;;4966509;28;20050;-40
2023/04/11 08:38:38;;;;;;;6.15;4.10;;;;;;;;;;4963559;28;20031;-43
2023/04/11 08:41:04;;;;;;;7.95;3.33;;;;;;;;;;4961918;28;20043;-40
2023/04/11 08:43:33;;;;;;;6.30;3.78;;;;;;;;;;4966561;28;20695;-40
2023/04/11 08:46:03;;;;;;;10.07;4.57;;;;;;;;;;4964316;28;20113;-40
2023/04/11 08:48:29;;;;;;;6.45;4.03;;;;;;;;;;4955451;28;20581;-40
2023/04/11 08:50:54;;;;;;;9.35;4.45;;;;;;;;;;4963244;28;20093;-39
2023/04/11 08:53:23;;;;;;;6.90;4.25;;;;;;;;;;4964947;28;20063;-40
2023/04/11 08:55:49;;;;;;;8.18;4.13;;;;;;;;;;4960550;28;20138;-40
2023/04/11 08:58:15;;;;;;;10.90;4.70;;;;;;;;;;4960889;28;20030;-40
2023/04/11 09:00:40;;;;;;;12.52;4.50;;;;;;;;;;4958766;28;20054;-40
2023/04/11 09:03:07;;;;;;;7.78;4.10;;;;;;;;;;4969184;28;20383;-40
2023/04/11 09:05:42;;;;;;;10.43;3.72;;;;;;;;;;4965961;28;20085;-39
2023/04/11 09:08:09;;;;;;;6.15;3.22;;;;;;;;;;4974706;28;20058;-39
2023/04/11 09:10:35;;;;;;;8.90;3.60;;;;;;;;;;4959573;28;20451;-40
2023/04/11 09:13:19;;;;;;;6.32;3.20;;;;;;;;;;4965560;28;20110;-40
2023/04/11 09:15:44;;;;;;;5.70;2.67;;;;;;;;;;4961966;28;20035;-40
2023/04/11 09:18:10;;;;;;;9.07;2.90;;;;;;;;;;4959695;28;20726;-40
2023/04/11 09:20:35;;;;;;;6.15;2.53;;;;;;;;;;4961289;28;20395;-40
2023/04/11 09:23:00;;;;;;;3.75;2.60;;;;;;;;;;4962722;28;20041;-40
2023/04/11 09:25:26;;;;;;;6.43;2.92;;;;;;;;;;4962771;28;20047;-40
2023/04/11 09:28:09;;;;;;;4.18;2.33;;;;;;;;;;4961246;28;20549;-39
2023/04/11 09:30:35;;;;;;;4.90;2.10;;;;;;;;;;4959653;28;20054;-40
2023/04/11 09:33:27;;;;;;;1.80;1.70;;;;;;;;;;4964438;28;20419;-40
2023/04/11 09:35:54;;;;;;;2.67;1.80;;;;;;;;;;4956125;28;20055;-40
2023/04/11 09:38:35;;;;;;;2.38;1.45;;;;;;;;;;4941140;28;20048;-40
2023/04/11 09:41:01;;;;;;;1.73;1.60;;;;;;;;;;4947428;28;20047;-40
2023/04/11 09:43:48;;;;;;;5.88;1.58;;;;;;;;;;4963086;28;20033;-40
2023/04/11 09:46:17;;;;;;;2.38;1.40;;;;;;;;;;4961129;28;20070;-40
2023/04/11 09:48:43;;;;;;;2.28;1.40;;;;;;;;;;4971423;28;20058;-41
2023/04/11 09:51:09;;;;;;;2.38;1.20;;;;;;;;;;4960442;28;20081;-40
2023/04/11 09:53:36;;;;;;;3.22;1.30;;;;;;;;;;4961271;28;20036;-39
2023/04/11 09:56:02;;;;;;;1.27;0.98;;;;;;;;;;4959791;28;20538;-41
2023/04/11 09:58:33;;;;;;;2.40;1.48;;;;;;;;;;4957187;28;20453;-40
2023/04/11 10:00:59;;;;;;;4.25;1.50;;;;;;;;;;4965339;28;20179;-40
2023/04/11 10:03:25;;;;;;;2.25;1.42;;;;;;;;;;4968038;28;20030;-41
2023/04/11 10:05:55;;;;;;;2.38;1.33;;;;;;;;;;4961558;28;20034;-40
2023/04/11 10:08:31;;;;;;;2.70;1.42;;;;;;;;;;4961309;28;20023;-40
2023/04/11 10:11:01;;;;;;;8.40;1.35;;;;;;;;;;4958255;28;20552;-40
2023/04/11 10:13:42;;;;;;;4.65;1.98;;;;;;;;;;4963426;28;20058;-40
2023/04/11 10:16:19;;;;;;;1.63;1.40;;;;;;;;;;4957812;28;20050;-40
2023/04/11 10:18:53;;;;;;;4.05;1.48;;;;;;;;;;4963712;28;20062;-40
2023/04/11 10:21:33;;;;;;;1.50;1.40;;;;;;;;;;4962171;28;20043;-40
2023/04/11 10:24:15;;;;;;;2.80;1.13;;;;;;;;;;4966656;28;20445;-40
2023/04/11 10:26:55;;;;;;;6.80;1.50;;;;;;;;;;4960908;28;20045;-40
2023/04/11 10:29:33;;;;;;;1.50;1.40;;;;;;;;;;4963301;28;20435;-40
2023/04/11 10:32:07;;;;;;;4.10;1.38;;;;;;;;;;4965160;28;20039;-40
2023/04/11 10:34:37;;;;;;;2.00;1.58;;;;;;;;;;4959595;28;20042;-39
2023/04/11 10:37:07;;;;;;;3.80;1.50;;;;;;;;;;4959715;28;20057;-40
2023/04/11 10:39:59;;;;;;;2.67;1.80;;;;;;;;;;4960708;28;20460;-39
2023/04/11 10:42:28;;;;;;;6.32;1.90;;;;;;;;;;4958197;28;20415;-40
2023/04/11 10:45:26;;;;;;;2.78;1.38;;;;;;;;;;4963835;28;20118;-39
2023/04/11 10:48:00;;;;;;;2.63;1.50;;;;;;;;;;4944469;28;20122;-39
2023/04/11 10:50:26;;;;;;;5.32;1.65;;;;;;;;;;4947670;28;20046;-39
2023/04/11 10:52:51;;;;;;;7.25;1.90;;;;;;;;;;4963517;28;20054;-39
2023/04/11 10:55:17;;;;;;;3.28;1.70;;;;;;;;;;4961901;28;20035;-40
2023/04/11 10:58:05;;;;;;;2.63;1.77;;;;;;;;;;4963600;28;20035;-40
2023/04/11 11:00:49;;;;;;;2.85;1.77;;;;;;;;;;4962865;28;20130;-40
2023/04/11 11:03:22;;;;;;;1.70;1.60;;;;;;;;;;4961827;28;20031;-40
2023/04/11 11:06:05;;;;;;;11.88;2.05;;;;;;;;;;4957889;28;20055;-40
2023/04/11 11:08:41;;;;;;;5.28;1.67;;;;;;;;;;4967069;28;20047;-40
2023/04/11 11:11:09;;;;;;;2.08;1.40;;;;;;;;;;4963675;28;20071;-40
2023/04/11 11:13:54;;;;;;;4.22;1.90;;;;;;;;;;4962871;28;20035;-40
2023/04/11 11:16:22;;;;;;;4.80;1.60;;;;;;;;;;4964463;28;20039;-40
2023/04/11 11:18:50;;;;;;;3.53;1.50;;;;;;;;;;4965098;28;20077;-40
2023/04/11 11:21:19;;;;;;;4.97;1.60;;;;;;;;;;4961002;28;20046;-40
2023/04/11 11:23:57;;;;;;;5.68;1.48;;;;;;;;;;4966723;28;20066;-40
2023/04/11 11:26:39;;;;;;;1.80;1.58;;;;;;;;;;4965705;28;20051;-40
2023/04/11 11:29:05;;;;;;;4.30;1.45;;;;;;;;;;4968002;28;20034;-40
2023/04/11 11:31:49;;;;;;;4.20;1.67;;;;;;;;;;4962928;28;20500;-39
2023/04/11 11:34:26;;;;;;;2.38;1.65;;;;;;;;;;4962204;28;20027;-39
2023/04/11 11:36:52;;;;;;;2.95;1.65;;;;;;;;;;4965176;28;20054;-39
2023/04/11 11:39:18;;;;;;;2.65;1.52;;;;;;;;;;4962548;28;20038;-40
2023/04/11 11:41:43;;;;;;;4.60;2.25;;;;;;;;;;4963280;28;20539;-40
2023/04/11 11:44:20;;;;;;;3.47;1.20;;;;;;;;;;4966297;28;20499;-40
2023/04/11 11:47:16;;;;;;;9.93;1.38;;;;;;;;;;4968720;28;20504;-40
2023/04/11 11:50:02;;;;;;;4.50;1.40;;;;;;;;;;4970594;28;20043;-41
2023/04/11 11:52:36;;;;;;;5.22;1.40;;;;;;;;;;4962566;28;20047;-40
2023/04/11 11:55:04;;;;;;;2.22;1.40;;;;;;;;;;4969730;28;20038;-40
2023/04/11 11:57:33;;;;;;;4.05;1.38;;;;;;;;;;4966228;28;20554;-40
2023/04/11 12:00:00;;;;;;;1.80;1.20;;;;;;;;;;4964824;28;20050;-40
2023/04/11 12:02:26;;;;;;;2.42;1.20;;;;;;;;;;4962383;28;20106;-40
2023/04/11 12:04:59;;;;;;;7.55;1.23;;;;;;;;;;4963953;28;20034;-40
2023/04/11 12:07:25;;;;;;;2.97;1.50;;;;;;;;;;4965918;28;20058;-40
2023/04/11 12:09:58;;;;;;;1.65;1.30;;;;;;;;;;4967773;28;20522;-40
2023/04/11 12:12:23;;;;;;;3.92;1.77;;;;;;;;;;4968549;28;20412;-40
2023/04/11 12:14:52;;;;;;;2.50;1.77;;;;;;;;;;4966321;28;20037;-40
2023/04/11 12:17:18;;;;;;;5.72;1.83;;;;;;;;;;4962116;28;20488;-45
2023/04/11 12:19:43;;;;;;;4.00;1.60;;;;;;;;;;4964583;28;20035;-40
2023/04/11 12:22:09;;;;;;;2.10;1.77;;;;;;;;;;4950276;28;20031;-40
2023/04/11 12:24:35;;;;;;;3.20;1.63;;;;;;;;;;4943188;28;20464;-40
2023/04/11 12:27:00;;;;;;;2.25;1.30;;;;;;;;;;4964132;28;20035;-41
2023/04/11 12:29:25;;;;;;;6.82;1.55;;;;;;;;;;4966666;28;20035;-40
2023/04/11 12:31:51;;;;;;;2.28;1.60;;;;;;;;;;4968603;28;20455;-40
2023/04/11 12:34:16;;;;;;;2.67;1.80;;;;;;;;;;4966584;28;20035;-41
2023/04/11 12:36:41;;;;;;;2.60;1.67;;;;;;;;;;4964425;28;20043;-41
2023/04/11 12:39:07;;;;;;;2.35;1.30;;;;;;;;;;4964734;28;20027;-40
2023/04/11 12:41:32;;;;;;;8.65;1.30;;;;;;;;;;4963880;28;20766;-40
2023/04/11 12:44:00;;;;;;;1.80;0.95;;;;;;;;;;4968612;28;20026;-40
2023/04/11 12:46:26;;;;;;;6.93;1.30;;;;;;;;;;4964414;28;20030;-40
2023/04/11 12:48:51;;;;;;;6.18;1.77;;;;;;;;;;4967862;28;20034;-40
2023/04/11 12:51:17;;;;;;;3.33;1.20;;;;;;;;;;4955898;28;21065;-40
2023/04/11 12:53:42;;;;;;;7.32;1.35;;;;;;;;;;4945166;28;20519;-40
2023/04/11 12:56:07;;;;;;;5.43;1.48;;;;;;;;;;4957404;28;20046;-40
2023/04/11 12:58:33;;;;;;;2.55;1.02;;;;;;;;;;4965734;28;20037;-40
2023/04/11 13:00:58;;;;;;;3.55;1.77;;;;;;;;;;4962833;28;20035;-40
2023/04/11 13:03:23;;;;;;;1.08;1.00;;;;;;;;;;4969656;28;20459;-40
2023/04/11 13:05:49;;;;;;;1.73;1.50;;;;;;;;;;4962536;28;20089;-40
2023/04/11 13:08:15;;;;;;;4.68;1.40;;;;;;;;;;4963318;28;20022;-40
2023/04/11 13:10:40;;;;;;;1.77;1.60;;;;;;;;;;4956472;28;20061;-40
2023/04/11 13:13:06;;;;;;;5.03;1.70;;;;;;;;;;4959616;28;20475;-40
2023/04/11 13:15:31;;;;;;;1.60;1.50;;;;;;;;;;4955311;28;20051;-40
2023/04/11 13:17:57;;;;;;;6.57;1.80;;;;;;;;;;4947055;28;20059;-40
2023/04/11 13:20:22;;;;;;;2.83;1.92;;;;;;;;;;4945728;28;20080;-40
2023/04/11 13:22:47;;;;;;;5.40;1.58;;;;;;;;;;4945889;28;20388;-40
2023/04/11 13:25:13;;;;;;;5.28;1.40;;;;;;;;;;4947685;28;20042;-40
2023/04/11 13:27:40;;;;;;;11.27;2.22;;;;;;;;;;4967640;28;20046;-40
2023/04/11 13:30:07;;;;;;;3.63;1.70;;;;;;;;;;4966381;28;20110;-39
2023/04/11 13:32:32;;;;;;;2.17;1.88;;;;;;;;;;4959997;28;20563;-40
2023/04/11 13:34:58;;;;;;;2.88;1.85;;;;;;;;;;4963801;28;20035;-48
2023/04/11 13:37:23;;;;;;;13.35;1.80;;;;;;;;;;4967685;28;20105;-40
2023/04/11 13:39:48;;;;;;;4.32;1.70;;;;;;;;;;4959712;28;20073;-40
2023/04/11 13:42:14;;;;;;;1.92;1.70;;;;;;;;;;4964743;28;20051;-40
2023/04/11 13:44:39;;;;;;;2.78;1.52;;;;;;;;;;4957554;28;20031;-40
2023/04/11 13:47:04;;;;;;;1.80;1.60;;;;;;;;;;4958074;28;20381;-40
2023/04/11 13:49:30;;;;;;;5.50;1.50;;;;;;;;;;4967735;28;20101;-40
2023/04/11 13:51:55;;;;;;;8.52;1.83;;;;;;;;;;4963591;28;20125;-40
2023/04/11 13:54:21;;;;;;;5.38;1.67;;;;;;;;;;4967804;28;20492;-40
2023/04/11 13:56:46;;;;;;;4.07;1.80;;;;;;;;;;4945231;28;20071;-40
2023/04/11 13:59:11;;;;;;;5.15;1.70;;;;;;;;;;4942404;28;20019;-40
2023/04/11 14:01:37;;;;;;;2.78;1.60;;;;;;;;;;4954195;28;20039;-40
2023/04/11 14:04:02;;;;;;;4.53;1.50;;;;;;;;;;4965069;28;20039;-40
2023/04/11 14:06:28;;;;;;;6.25;1.58;;;;;;;;;;4966702;28;20071;-40
2023/04/11 14:08:53;;;;;;;4.82;1.73;;;;;;;;;;4965499;28;20530;-40
2023/04/11 14:11:19;;;;;;;1.75;1.20;;;;;;;;;;4967576;28;20170;-40
2023/04/11 14:13:44;;;;;;;2.42;1.48;;;;;;;;;;4966342;28;20027;-40
2023/04/11 14:16:10;;;;;;;1.90;1.13;;;;;;;;;;4963103;28;20034;-40
2023/04/11 14:18:35;;;;;;;1.98;1.20;;;;;;;;;;4963066;28;20030;-40
2023/04/11 14:21:01;;;;;;;6.50;1.60;;;;;;;;;;4962379;28;20039;-40
2023/04/11 14:23:27;;;;;;;1.98;1.40;;;;;;;;;;4964355;28;20471;-40
2023/04/11 14:25:53;;;;;;;3.30;1.65;;;;;;;;;;4966932;28;20467;-40
2023/04/11 14:28:18;;;;;;;3.20;1.38;;;;;;;;;;4965657;28;20022;-40
2023/04/11 14:30:44;;;;;;;4.05;1.50;;;;;;;;;;4965266;28;20171;-40
2023/04/11 14:33:10;;;;;;;3.58;1.40;;;;;;;;;;4962965;28;20369;-40
2023/04/11 14:35:35;;;;;;;5.55;1.45;;;;;;;;;;4964748;28;20070;-40